createdAt,value
2018-06-12T00:01:47.295Z,41.60
2018-06-12T00:04:15.395Z,42.00
2018-06-12T00:06:43.522Z,42.60
2018-06-12T00:09:11.608Z,41.90
2018-06-12T00:14:07.567Z,42.00
2018-06-12T00:16:35.647Z,41.80
2018-06-12T00:19:03.759Z,42.00
2018-06-12T00:21:31.839Z,41.90
2018-06-12T00:23:59.932Z,42.30
2018-06-12T00:26:28.011Z,42.20
2018-06-12T00:28:56.134Z,42.20
2018-06-12T00:31:24.238Z,42.10
2018-06-12T00:33:52.341Z,41.80
2018-06-12T00:36:20.449Z,42.10
2018-06-12T00:38:48.528Z,42.10
2018-06-12T00:41:16.619Z,42.10
2018-06-12T00:43:44.771Z,42.20
2018-06-12T00:46:12.928Z,42.10
2018-06-12T00:48:41.099Z,42.10
2018-06-12T00:51:09.269Z,42.30
2018-06-12T00:53:37.392Z,42.30
2018-06-12T00:56:06.275Z,42.30
2018-06-12T00:58:34.405Z,42.40
2018-06-12T01:01:02.546Z,42.30
2018-06-12T01:03:30.628Z,42.40
2018-06-12T01:05:58.720Z,42.30
2018-06-12T01:08:26.797Z,42.10
2018-06-12T01:10:54.877Z,42.40
2018-06-12T01:13:22.965Z,42.40
2018-06-12T01:15:51.059Z,42.40
2018-06-12T01:18:19.148Z,42.30
2018-06-12T01:20:47.291Z,42.40
2018-06-12T01:23:15.407Z,42.60
2018-06-12T01:25:43.492Z,42.40
2018-06-12T01:28:11.599Z,42.40
2018-06-12T01:30:39.732Z,42.30
2018-06-12T01:33:07.872Z,42.20
2018-06-12T01:35:35.999Z,42.30
2018-06-12T01:38:04.108Z,42.40
2018-06-12T01:40:32.215Z,42.50
2018-06-12T01:43:00.336Z,42.40
2018-06-12T01:45:28.447Z,42.50
2018-06-12T01:47:56.578Z,42.40
2018-06-12T01:50:24.708Z,42.60
2018-06-12T01:55:20.727Z,42.50
2018-06-12T01:57:48.827Z,42.20
2018-06-12T02:00:16.928Z,42.50
2018-06-12T02:02:45.061Z,42.40
2018-06-12T02:07:41.062Z,42.50
2018-06-12T02:10:09.160Z,42.50
2018-06-12T02:12:37.281Z,42.50
2018-06-12T02:15:05.580Z,42.50
2018-06-12T02:17:33.695Z,42.50
2018-06-12T02:20:01.792Z,42.50
2018-06-12T02:22:29.915Z,42.60
2018-06-12T02:24:58.008Z,42.40
2018-06-12T02:27:26.124Z,42.60
2018-06-12T02:29:54.219Z,42.80
2018-06-12T02:32:22.392Z,42.80
2018-06-12T02:34:50.487Z,42.80
2018-06-12T02:37:18.619Z,42.60
2018-06-12T02:39:46.732Z,42.80
2018-06-12T02:42:14.823Z,42.80
2018-06-12T02:44:42.964Z,43.40
2018-06-12T02:47:11.108Z,42.70
2018-06-12T02:49:39.273Z,42.70
2018-06-12T02:52:07.401Z,42.50
2018-06-12T02:54:35.495Z,42.80
2018-06-12T02:57:03.649Z,42.90
2018-06-12T02:59:38.576Z,42.50
2018-06-12T03:02:06.741Z,42.80
2018-06-12T03:04:34.870Z,42.80
2018-06-12T03:07:02.990Z,42.60
2018-06-12T03:09:31.087Z,42.80
2018-06-12T03:14:27.108Z,42.90
2018-06-12T03:16:55.218Z,42.80
2018-06-12T03:19:23.343Z,42.70
2018-06-12T03:21:51.487Z,42.80
2018-06-12T03:24:19.615Z,42.90
2018-06-12T03:26:47.709Z,42.80
2018-06-12T03:31:43.727Z,42.70
2018-06-12T03:34:11.843Z,42.60
2018-06-12T03:36:39.962Z,42.80
2018-06-12T03:39:08.047Z,42.80
2018-06-12T03:41:36.181Z,43.00
2018-06-12T03:44:04.308Z,42.90
2018-06-12T03:49:00.296Z,42.90
2018-06-12T03:51:28.419Z,42.80
2018-06-12T03:53:56.577Z,42.30
2018-06-12T03:56:24.680Z,42.50
2018-06-12T03:58:52.786Z,42.80
2018-06-12T04:01:20.887Z,42.70
2018-06-12T04:03:49.000Z,42.60
2018-06-12T04:06:17.134Z,42.70
2018-06-12T04:08:45.243Z,42.70
2018-06-12T04:11:13.383Z,42.60
2018-06-12T04:13:41.483Z,42.90
2018-06-12T04:16:09.597Z,42.70
2018-06-12T04:18:37.714Z,42.60
2018-06-12T04:21:05.845Z,42.60
2018-06-12T04:23:33.952Z,42.70
2018-06-12T04:26:02.061Z,42.60
2018-06-12T04:28:30.185Z,42.50
2018-06-12T04:30:59.096Z,42.50
2018-06-12T04:33:27.224Z,42.40
2018-06-12T04:35:55.320Z,42.50
2018-06-12T04:38:23.478Z,42.40
2018-06-12T04:40:51.592Z,42.40
2018-06-12T04:43:19.732Z,42.40
2018-06-12T04:45:47.827Z,42.30
2018-06-12T04:48:15.963Z,42.20
2018-06-12T04:50:44.075Z,42.20
2018-06-12T04:53:12.204Z,42.20
2018-06-12T04:55:40.309Z,42.30
2018-06-12T04:58:08.552Z,42.20
2018-06-12T05:00:36.668Z,42.20
2018-06-12T05:03:04.957Z,42.10
2018-06-12T05:05:33.054Z,41.60
2018-06-12T05:08:01.198Z,41.70
2018-06-12T05:10:29.379Z,42.00
2018-06-12T05:12:57.460Z,41.90
2018-06-12T05:15:25.535Z,42.20
2018-06-12T05:20:21.551Z,41.80
2018-06-12T05:22:49.667Z,42.00
2018-06-12T05:25:17.865Z,41.80
2018-06-12T05:27:45.977Z,41.90
2018-06-12T05:32:42.012Z,41.70
2018-06-12T05:35:10.155Z,41.50
2018-06-12T05:37:38.261Z,41.70
2018-06-12T05:40:06.388Z,41.50
2018-06-12T05:42:34.519Z,41.40
2018-06-12T05:45:02.597Z,41.50
2018-06-12T05:47:30.724Z,41.50
2018-06-12T05:49:58.844Z,41.30
2018-06-12T05:52:26.979Z,41.40
2018-06-12T05:54:55.079Z,41.20
2018-06-12T05:57:23.191Z,41.20
2018-06-12T05:59:51.289Z,41.30
2018-06-12T06:02:19.483Z,41.20
2018-06-12T06:04:47.628Z,41.00
2018-06-12T06:07:15.723Z,40.90
2018-06-12T06:09:43.807Z,40.90
2018-06-12T06:12:11.908Z,40.70
2018-06-12T06:14:40.040Z,40.50
2018-06-12T06:17:08.260Z,40.70
2018-06-12T06:19:36.383Z,40.50
2018-06-12T06:22:04.473Z,40.50
2018-06-12T06:24:32.607Z,40.70
2018-06-12T06:27:00.708Z,40.50
2018-06-12T06:29:28.852Z,41.40
2018-06-12T06:31:56.968Z,40.90
2018-06-12T06:34:25.084Z,41.10
2018-06-12T06:36:53.207Z,40.80
2018-06-12T06:39:21.327Z,40.90
2018-06-12T06:41:49.441Z,40.70
2018-06-12T06:44:17.548Z,40.80
2018-06-12T06:46:45.664Z,40.70
2018-06-12T06:51:41.694Z,40.70
2018-06-12T06:54:09.791Z,40.40
2018-06-12T06:56:37.935Z,40.50
2018-06-12T06:59:06.009Z,40.50
2018-06-12T07:01:34.124Z,40.40
2018-06-12T07:04:02.236Z,40.00
2018-06-12T07:06:30.343Z,40.80
2018-06-12T07:08:58.493Z,40.20
2018-06-12T07:11:26.785Z,40.30
2018-06-12T07:13:54.900Z,40.50
2018-06-12T07:16:22.993Z,40.50
2018-06-12T07:21:20.334Z,40.30
2018-06-12T07:23:50.568Z,40.40
2018-06-12T07:26:18.652Z,40.40
2018-06-12T07:28:46.735Z,40.50
2018-06-12T07:31:14.865Z,40.40
2018-06-12T07:33:42.967Z,40.10
2018-06-12T07:36:11.093Z,39.90
2018-06-12T07:38:39.208Z,40.10
2018-06-12T07:41:07.298Z,39.90
2018-06-12T07:43:35.475Z,39.70
2018-06-12T07:46:03.588Z,39.90
2018-06-12T07:48:31.760Z,39.80
2018-06-12T07:50:59.943Z,39.60
2018-06-12T07:53:28.119Z,39.40
2018-06-12T07:55:56.222Z,39.20
2018-06-12T07:58:24.370Z,39.20
2018-06-12T08:00:52.539Z,39.20
2018-06-12T08:03:20.607Z,39.10
2018-06-12T08:05:48.724Z,38.90
2018-06-12T08:08:16.844Z,38.80
2018-06-12T08:10:44.943Z,38.60
2018-06-12T08:13:13.057Z,38.30
2018-06-12T08:15:41.181Z,38.30
2018-06-12T08:18:09.280Z,38.20
2018-06-12T08:20:37.406Z,38.00
2018-06-12T08:23:05.508Z,38.00
2018-06-12T08:25:33.596Z,38.00
2018-06-12T08:28:01.835Z,37.80
2018-06-12T08:30:29.992Z,37.60
2018-06-12T08:32:58.070Z,37.90
2018-06-12T08:35:26.193Z,38.00
2018-06-12T08:37:54.284Z,38.40
2018-06-12T08:40:22.403Z,38.40
2018-06-12T08:42:50.499Z,38.40
2018-06-12T08:45:18.639Z,38.80
2018-06-12T08:47:46.739Z,38.70
2018-06-12T08:50:14.840Z,38.40
2018-06-12T08:52:42.922Z,38.20
2018-06-12T08:55:11.079Z,38.20
2018-06-12T08:57:39.211Z,38.30
2018-06-12T09:00:07.318Z,38.20
2018-06-12T09:02:35.409Z,38.00
2018-06-12T09:05:03.523Z,38.00
2018-06-12T09:07:31.636Z,37.90
2018-06-12T09:09:59.727Z,37.80
2018-06-12T09:12:27.803Z,37.50
2018-06-12T09:14:55.913Z,37.80
2018-06-12T09:17:24.011Z,37.90
2018-06-12T09:19:52.124Z,37.80
2018-06-12T09:22:20.244Z,37.40
2018-06-12T09:24:48.358Z,37.00
2018-06-12T09:27:16.498Z,36.40
2018-06-12T09:29:44.722Z,35.80
2018-06-12T09:32:12.984Z,35.70
2018-06-12T09:34:41.151Z,35.60
2018-06-12T09:37:09.288Z,35.40
2018-06-12T09:39:37.402Z,36.40
2018-06-12T09:42:05.595Z,36.70
2018-06-12T09:44:33.658Z,36.80
2018-06-12T09:47:01.772Z,36.70
2018-06-12T09:49:29.878Z,36.00
2018-06-12T09:51:58.020Z,35.80
2018-06-12T09:54:26.140Z,35.40
2018-06-12T09:56:54.261Z,35.10
2018-06-12T09:59:22.384Z,35.00
2018-06-12T10:01:50.512Z,34.40
2018-06-12T10:04:18.628Z,34.10
2018-06-12T10:06:46.716Z,34.00
2018-06-12T10:09:14.849Z,33.80
2018-06-12T10:11:42.946Z,33.60
2018-06-12T10:14:11.078Z,33.30
2018-06-12T10:16:39.193Z,32.50
2018-06-12T10:19:07.318Z,32.10
2018-06-12T10:21:35.420Z,32.30
2018-06-12T10:24:03.518Z,32.90
2018-06-12T10:26:31.662Z,33.60
2018-06-12T10:28:59.759Z,34.10
2018-06-12T10:31:27.895Z,34.20
2018-06-12T10:33:55.993Z,34.10
2018-06-12T10:36:24.087Z,33.60
2018-06-12T10:38:52.203Z,32.50
2018-06-12T10:41:20.320Z,31.90
2018-06-12T10:43:48.407Z,32.50
2018-06-12T10:46:16.551Z,32.80
2018-06-12T10:48:44.652Z,33.00
2018-06-12T10:51:12.770Z,32.80
2018-06-12T10:53:40.876Z,33.00
2018-06-12T10:56:08.963Z,33.10
2018-06-12T10:58:37.132Z,33.00
2018-06-12T11:01:05.278Z,33.00
2018-06-12T11:03:33.410Z,33.40
2018-06-12T11:06:01.519Z,33.60
2018-06-12T11:08:29.637Z,34.00
2018-06-12T11:10:57.784Z,34.00
2018-06-12T11:13:25.868Z,33.90
2018-06-12T11:15:53.990Z,33.60
2018-06-12T11:18:22.098Z,32.70
2018-06-12T11:20:50.219Z,32.00
2018-06-12T11:23:18.341Z,32.10
2018-06-12T11:25:46.440Z,32.70
2018-06-12T11:28:14.571Z,32.80
2018-06-12T11:30:42.688Z,32.70
2018-06-12T11:33:10.835Z,32.70
2018-06-12T11:35:38.932Z,32.30
2018-06-12T11:38:07.060Z,32.10
2018-06-12T11:40:35.175Z,31.70
2018-06-12T11:43:03.503Z,31.40
2018-06-12T11:45:31.620Z,30.50
2018-06-12T11:47:59.772Z,30.50
2018-06-12T11:50:27.868Z,30.80
2018-06-12T11:52:56.007Z,30.80
2018-06-12T11:55:24.111Z,31.00
2018-06-12T11:57:52.236Z,31.40
2018-06-12T12:00:20.359Z,31.70
2018-06-12T12:02:48.488Z,32.10
2018-06-12T12:05:16.615Z,32.70
2018-06-12T12:07:44.755Z,33.30
2018-06-12T12:10:12.852Z,33.50
2018-06-12T12:12:40.932Z,33.80
2018-06-12T12:15:09.052Z,33.60
2018-06-12T12:17:37.161Z,33.90
2018-06-12T12:20:05.297Z,34.30
2018-06-12T12:22:33.409Z,34.70
2018-06-12T12:25:01.537Z,34.70
2018-06-12T12:27:29.664Z,34.50
2018-06-12T12:29:57.790Z,34.00
2018-06-12T12:32:25.953Z,32.20
2018-06-12T12:34:54.080Z,31.60
2018-06-12T12:37:22.217Z,31.70
2018-06-12T12:39:50.331Z,32.20
2018-06-12T12:42:18.456Z,32.40
2018-06-12T12:44:46.560Z,32.10
2018-06-12T12:47:14.676Z,31.80
2018-06-12T12:49:42.792Z,31.30
2018-06-12T12:52:10.906Z,31.10
2018-06-12T12:54:39.038Z,30.80
2018-06-12T12:57:07.156Z,30.70
2018-06-12T12:59:35.263Z,30.40
2018-06-12T13:02:03.404Z,29.30
2018-06-12T13:04:31.532Z,29.50
2018-06-12T13:06:59.631Z,30.00
2018-06-12T13:09:27.747Z,30.10
2018-06-12T13:11:55.863Z,29.60
2018-06-12T13:14:23.964Z,29.10
2018-06-12T13:16:52.083Z,29.40
2018-06-12T13:19:20.209Z,29.40
2018-06-12T13:21:48.356Z,30.20
2018-06-12T13:24:16.507Z,30.80
2018-06-12T13:26:44.681Z,31.20
2018-06-12T13:29:12.787Z,31.40
2018-06-12T13:31:40.917Z,31.40
2018-06-12T13:34:09.038Z,31.50
2018-06-12T13:36:37.165Z,31.60
2018-06-12T13:39:05.871Z,32.20
2018-06-12T13:41:33.978Z,32.90
2018-06-12T13:44:02.114Z,33.30
2018-06-12T13:46:30.222Z,33.70
2018-06-12T13:48:58.340Z,33.80
2018-06-12T13:51:26.460Z,34.10
2018-06-12T13:53:54.552Z,34.40
2018-06-12T13:56:22.710Z,34.50
2018-06-12T13:58:50.795Z,34.60
2018-06-12T14:01:18.940Z,34.50
2018-06-12T14:03:47.094Z,34.80
2018-06-12T14:06:15.211Z,35.00
2018-06-12T14:08:43.324Z,35.20
2018-06-12T14:11:11.435Z,35.30
2018-06-12T14:13:39.619Z,35.60
2018-06-12T14:16:07.663Z,35.80
2018-06-12T14:18:35.780Z,35.90
2018-06-12T14:21:03.932Z,36.00
2018-06-12T14:23:32.116Z,36.20
2018-06-12T14:26:00.341Z,36.30
2018-06-12T14:28:28.463Z,36.30
2018-06-12T14:30:56.579Z,36.10
2018-06-12T14:33:24.703Z,36.00
2018-06-12T14:35:52.788Z,35.80
2018-06-12T14:38:20.900Z,36.10
2018-06-12T14:40:49.044Z,36.10
2018-06-12T14:43:17.175Z,35.90
2018-06-12T14:45:45.290Z,35.90
2018-06-12T14:48:13.411Z,35.60
2018-06-12T14:50:41.520Z,35.00
2018-06-12T14:53:09.641Z,34.70
2018-06-12T14:55:37.780Z,34.80
2018-06-12T14:58:05.906Z,35.30
2018-06-12T15:00:34.007Z,35.50
2018-06-12T15:03:02.099Z,35.70
2018-06-12T15:05:30.228Z,36.00
2018-06-12T15:07:58.355Z,36.30
2018-06-12T15:10:26.472Z,36.40
2018-06-12T15:12:54.588Z,36.40
2018-06-12T15:15:22.747Z,36.60
2018-06-12T15:17:50.895Z,36.50
2018-06-12T15:20:18.996Z,36.70
2018-06-12T15:22:47.117Z,36.80
2018-06-12T15:25:15.246Z,37.00
2018-06-12T15:27:43.399Z,37.10
2018-06-12T15:30:11.487Z,37.40
2018-06-12T15:32:39.607Z,38.10
2018-06-12T15:35:07.727Z,37.70
2018-06-12T15:37:35.856Z,37.90
2018-06-12T15:40:03.976Z,38.00
2018-06-12T15:42:32.099Z,38.00
2018-06-12T15:45:00.217Z,37.90
2018-06-12T15:47:28.374Z,37.80
2018-06-12T15:49:56.462Z,37.40
2018-06-12T15:52:24.604Z,37.60
2018-06-12T15:54:52.708Z,37.70
2018-06-12T15:57:20.816Z,37.50
2018-06-12T16:02:16.836Z,37.70
2018-06-12T16:04:45.104Z,37.90
2018-06-12T16:07:13.235Z,37.90
2018-06-12T16:09:41.356Z,38.10
2018-06-12T16:12:09.525Z,38.20
2018-06-12T16:14:37.659Z,38.30
2018-06-12T16:17:05.784Z,38.10
2018-06-12T16:19:33.897Z,38.00
2018-06-12T16:22:02.048Z,38.40
2018-06-12T16:24:30.159Z,38.30
2018-06-12T16:26:58.264Z,38.50
2018-06-12T16:29:26.357Z,38.40
2018-06-12T16:31:54.491Z,38.40
2018-06-12T16:34:22.592Z,38.70
2018-06-12T16:36:50.725Z,38.80
2018-06-12T16:39:18.819Z,38.10
2018-06-12T16:41:46.952Z,38.20
2018-06-12T16:44:15.068Z,38.00
2018-06-12T16:46:43.197Z,38.40
2018-06-12T16:49:11.317Z,38.00
2018-06-12T16:51:39.452Z,38.30
2018-06-12T16:54:07.572Z,38.40
2018-06-12T16:56:35.852Z,38.20
2018-06-12T16:59:03.825Z,38.40
2018-06-12T17:01:31.981Z,38.50
2018-06-12T17:04:00.137Z,38.20
2018-06-12T17:06:28.327Z,38.60
2018-06-12T17:08:56.477Z,38.90
2018-06-12T17:11:24.582Z,38.90
2018-06-12T17:13:52.751Z,38.80
2018-06-12T17:16:21.498Z,39.00
2018-06-12T17:18:49.619Z,39.40
2018-06-12T17:21:17.751Z,39.80
2018-06-12T17:23:45.873Z,39.80
2018-06-12T17:28:41.878Z,39.90
2018-06-12T17:31:10.146Z,39.80
2018-06-12T17:33:38.247Z,39.90
2018-06-12T17:36:06.384Z,40.10
2018-06-12T17:38:34.499Z,39.70
2018-06-12T17:41:02.627Z,39.80
2018-06-12T17:43:30.764Z,39.80
2018-06-12T17:48:26.907Z,39.90
2018-06-12T17:53:23.089Z,39.50
2018-06-12T17:55:51.206Z,39.80
2018-06-12T18:00:47.424Z,39.90
2018-06-12T18:05:43.511Z,40.10
2018-06-12T18:08:11.598Z,39.90
2018-06-12T18:10:39.719Z,39.90
2018-06-12T18:13:07.841Z,40.00
2018-06-12T18:15:35.952Z,40.30
2018-06-12T18:18:04.080Z,40.40
2018-06-12T18:20:32.212Z,40.40
2018-06-12T18:23:00.399Z,40.40
2018-06-12T18:25:28.519Z,40.50
2018-06-12T18:27:56.646Z,40.40
2018-06-12T18:30:24.829Z,40.60
2018-06-12T18:32:53.073Z,40.40
2018-06-12T18:35:21.157Z,40.50
2018-06-12T18:37:49.248Z,40.50
2018-06-12T18:40:17.508Z,40.40
2018-06-12T18:42:45.653Z,40.40
2018-06-12T18:45:15.112Z,40.50
2018-06-12T18:47:43.240Z,41.20
2018-06-12T18:50:11.433Z,40.60
2018-06-12T18:52:39.541Z,40.40
2018-06-12T18:55:07.661Z,40.30
2018-06-12T18:57:35.761Z,40.70
2018-06-12T19:00:04.450Z,40.60
2018-06-12T19:02:32.567Z,40.70
2018-06-12T19:05:00.664Z,40.50
2018-06-12T19:07:28.773Z,41.00
2018-06-12T19:09:56.955Z,40.90
2018-06-12T19:12:25.200Z,41.00
2018-06-12T19:14:53.361Z,41.00
2018-06-12T19:17:21.464Z,40.90
2018-06-12T19:19:49.584Z,40.90
2018-06-12T19:22:17.695Z,41.00
2018-06-12T19:24:45.864Z,41.30
2018-06-12T19:27:13.981Z,40.90
2018-06-12T19:29:42.112Z,40.90
2018-06-12T19:32:10.252Z,41.10
2018-06-12T19:34:38.410Z,41.60
2018-06-12T19:37:06.537Z,41.10
2018-06-12T19:39:34.685Z,41.30
2018-06-12T19:42:02.808Z,41.30
2018-06-12T19:44:30.916Z,41.40
2018-06-12T19:46:59.039Z,41.30
2018-06-12T19:49:27.602Z,41.50
2018-06-12T19:51:55.696Z,41.50
2018-06-12T19:54:25.014Z,41.40
2018-06-12T19:56:53.095Z,41.30
2018-06-12T19:59:21.245Z,41.40
2018-06-12T20:01:49.903Z,41.40
2018-06-12T20:04:19.186Z,41.40
2018-06-12T20:06:47.680Z,41.50
2018-06-12T20:09:15.932Z,41.40
2018-06-12T20:11:44.166Z,41.50
2018-06-12T20:14:12.366Z,41.60
2018-06-12T20:16:40.509Z,42.40
2018-06-12T20:19:08.612Z,41.90
2018-06-12T20:21:36.823Z,41.60
2018-06-12T20:24:04.944Z,41.70
2018-06-12T20:26:33.014Z,41.90
2018-06-12T20:29:01.172Z,41.80
2018-06-12T20:31:29.385Z,41.90
2018-06-12T20:36:25.492Z,42.30
2018-06-12T20:38:53.769Z,42.30
2018-06-12T20:41:21.852Z,42.10
2018-06-12T20:43:50.027Z,42.30
2018-06-12T20:46:18.126Z,42.50
2018-06-12T20:51:14.140Z,42.40
2018-06-12T20:53:42.224Z,42.40
2018-06-12T20:56:16.732Z,42.40
2018-06-12T20:58:44.816Z,42.30
2018-06-12T21:01:12.970Z,42.60
2018-06-12T21:06:08.989Z,43.20
2018-06-12T21:08:37.157Z,42.60
2018-06-12T21:11:05.278Z,42.20
2018-06-12T21:13:33.452Z,42.70
2018-06-12T21:16:01.586Z,42.80
2018-06-12T21:18:29.764Z,42.70
2018-06-12T21:20:57.848Z,42.50
2018-06-12T21:23:25.945Z,42.70
2018-06-12T21:25:54.067Z,42.80
2018-06-12T21:28:22.193Z,42.60
2018-06-12T21:30:50.304Z,42.70
2018-06-12T21:33:18.414Z,42.60
2018-06-12T21:35:46.537Z,42.70
2018-06-12T21:40:42.505Z,42.80
2018-06-12T21:43:11.604Z,42.70
2018-06-12T21:48:07.592Z,42.90
2018-06-12T21:50:35.686Z,42.80
2018-06-12T21:53:03.800Z,43.20
2018-06-12T21:55:31.936Z,42.90
2018-06-12T21:58:00.042Z,42.90
2018-06-12T22:00:38.933Z,42.80
2018-06-12T22:03:07.368Z,43.00
2018-06-12T22:05:37.140Z,42.60
2018-06-12T22:08:06.013Z,42.80
2018-06-12T22:13:06.629Z,43.00
2018-06-12T22:15:35.193Z,43.10
2018-06-12T22:18:04.246Z,43.00
2018-06-12T22:20:32.600Z,43.00
2018-06-12T22:23:03.905Z,42.80
2018-06-12T22:25:33.721Z,42.60
2018-06-12T22:28:09.578Z,42.60
2018-06-12T22:30:39.690Z,42.90
2018-06-12T22:33:10.317Z,43.10
2018-06-12T22:35:40.027Z,43.00
2018-06-12T22:38:08.155Z,42.70
2018-06-12T22:40:36.532Z,43.10
2018-06-12T22:43:04.922Z,42.90
2018-06-12T22:48:07.836Z,43.20
2018-06-12T22:50:35.944Z,43.00
2018-06-12T22:53:04.035Z,43.00
2018-06-12T22:55:32.828Z,43.10
2018-06-12T22:58:00.908Z,43.00
2018-06-12T23:00:29.003Z,43.10
2018-06-12T23:02:57.100Z,43.20
2018-06-12T23:07:54.025Z,42.80
2018-06-12T23:10:22.474Z,42.40
2018-06-12T23:15:20.079Z,42.90
2018-06-12T23:17:48.175Z,43.00
2018-06-12T23:20:27.612Z,42.80
2018-06-12T23:22:55.706Z,43.00
2018-06-12T23:25:23.843Z,43.00
2018-06-12T23:27:52.169Z,43.60
2018-06-12T23:30:20.260Z,42.80
2018-06-12T23:32:48.375Z,42.80
2018-06-12T23:35:16.471Z,42.80
2018-06-12T23:37:44.600Z,43.00
2018-06-12T23:40:12.796Z,42.90
2018-06-12T23:42:40.915Z,43.00
2018-06-12T23:45:09.003Z,42.90
2018-06-12T23:47:37.115Z,43.20
2018-06-12T23:50:05.947Z,43.10
2018-06-12T23:52:34.080Z,43.40
2018-06-12T23:55:02.176Z,43.60
2018-06-12T23:57:30.280Z,43.80
2018-06-12T23:59:58.409Z,43.50
